Airfield :
LOGIN :

Register | Disclaimer

   EN    FR    IT 

 










Legend :    VFR   Marginal VFR   IFR   Intensive IFR   Very Intensive IFR
Visi :
Ceiling :
>= 8 km
>= 3000ft
5 to 8 km
1000 to 3000 ft
1500m to 5 km
500 to 1000 ft
800 to 1500m
200 to 500 ft
< 800m
< 200 ft
Symbols :   Thunderstorms  Fog  Heavy snow  Heavy precipitations  Wind > 20 kt
SIGMETs :     Misc.  Thunderstorms  Icing  Turbulence  Mountain Waves  Volcanic Ashes






- Airport Elevation : 782 ft
- IATA code : BGY


LIME - Orio al Serio International - Bergamo

CURRENT METAR :
  • 152020Z 01002KT 9000 -DZ SCT015 BKN050 06/05 Q1018 NOSIG

EXPIRED METARs :
  • 151950Z AUTO 02003KT 360V060 //// BKN044/// 06/06 Q1018
  • 151920Z AUTO VRB02KT //// OVC035 06/05 Q1018
  • 151850Z AUTO VRB01KT //// OVC036 06/05 Q1018
  • 151820Z AUTO 26003KT 240V300 //// OVC039/// 06/05 Q1018
  • 151750Z AUTO 28003KT //// OVC042/// 06/05 Q1017

TAF TAF LIME
Valid from the 15 at 18:00 until the 16 at 18:00 UTC


151700Z 1518/1618 VRB05KT 4000 BR BKN020 BKN050
TEMPO 1600/1618 2500 DZ BKN012 BKN040



MET'MAP, your aeronautical weather chart ! - Copyright ORBIFLY December 2007 - Disclaimer

ORBIFLY MET'MAP TEAM :

Programming & Development : Alexandra Zaïnal
Concept & original design : Baudouin d'Aumeries
Assistance for programming : Marc-Olivier Méhu
Technical & hardware support : Manuel Goepfert

Contact : metmap@orbifly.com




SOURCES & CREDITS :

   NOAA